Bartolome Bavio, Argentina
Current Conditions -  °F | °C
As of 12:00 PM on Friday 19 Dec 2014 (Local Time) from SAEZ Reporting Station
Clear Clear  
Wind Chill: 90°   Ceiling: Unl
Heat Index: 90°   Visibility: 6mi
Dew Point: 59°   Wind: 18mph
Humidity: 36%   Direction: 340°NNW
Pressure: 29.65"   Gusts: NA
Location:  35.09°S, 57.73°W
Report Text: SAEZ 191500Z 34016KT 290V010 CAVOK 32/15 Q1004
Loading
Personal Weather Stations






























Interactive Weather Map New forecast layout! Learn more

10-Day Weather Forecast

Advertisements
Track Severe Weather on mobile